createdAt,value
2023-05-22T00:00:37.378Z,9.20
2023-05-22T00:03:26.885Z,8.80
2023-05-22T00:06:16.021Z,9.13
2023-05-22T00:09:06.218Z,9.77
2023-05-22T00:11:55.397Z,9.13
2023-05-22T00:14:44.018Z,8.77
2023-05-22T00:17:34.328Z,8.37
2023-05-22T00:20:23.513Z,8.70
2023-05-22T00:23:13.916Z,8.80
2023-05-22T00:26:05.621Z,9.27
2023-05-22T00:28:54.285Z,10.07
2023-05-22T00:31:45.802Z,9.37
2023-05-22T00:34:34.694Z,8.43
2023-05-22T00:37:23.428Z,8.93
2023-05-22T00:40:13.468Z,9.30
2023-05-22T00:43:08.636Z,8.97
2023-05-22T00:45:58.011Z,9.57
2023-05-22T00:48:50.330Z,9.07
2023-05-22T00:51:40.247Z,8.93
2023-05-22T00:54:30.789Z,7.97
2023-05-22T00:57:20.748Z,7.43
2023-05-22T01:00:12.287Z,7.30
2023-05-22T01:03:01.578Z,6.50
2023-05-22T01:05:50.565Z,8.97
2023-05-22T01:08:39.687Z,8.57
2023-05-22T01:11:37.691Z,9.07
2023-05-22T01:14:34.551Z,8.20
2023-05-22T01:17:34.749Z,9.20
2023-05-22T01:20:31.510Z,8.13
2023-05-22T01:23:55.294Z,9.07
2023-05-22T01:26:54.965Z,9.17
2023-05-22T01:29:55.860Z,8.43
2023-05-22T01:32:48.106Z,8.77
2023-05-22T01:35:40.949Z,8.53
2023-05-22T01:38:31.810Z,8.57
2023-05-22T01:41:22.576Z,9.53
2023-05-22T01:44:11.285Z,9.77
2023-05-22T01:47:05.031Z,10.17
2023-05-22T01:49:55.273Z,8.87
2023-05-22T01:52:52.952Z,9.43
2023-05-22T01:55:47.579Z,9.30
2023-05-22T01:58:44.261Z,11.10
2023-05-22T02:01:35.323Z,9.13
2023-05-22T02:04:25.224Z,8.50
2023-05-22T02:07:16.871Z,10.10
2023-05-22T02:10:08.553Z,10.00
2023-05-22T02:12:59.119Z,9.17
2023-05-22T02:15:49.627Z,9.03
2023-05-22T02:18:41.999Z,8.87
2023-05-22T02:21:37.809Z,9.60
2023-05-22T02:24:30.548Z,7.60
2023-05-22T02:27:19.656Z,7.60
2023-05-22T02:30:09.585Z,8.37
2023-05-22T02:33:00.460Z,8.23
2023-05-22T02:35:49.263Z,8.80
2023-05-22T02:38:38.084Z,9.20
2023-05-22T02:41:28.548Z,8.87
2023-05-22T02:44:17.887Z,9.20
2023-05-22T02:47:07.225Z,7.80
2023-05-22T02:49:58.066Z,8.27
2023-05-22T02:52:46.875Z,8.37
2023-05-22T02:55:36.041Z,8.13
2023-05-22T02:58:26.217Z,7.43
2023-05-22T03:01:15.570Z,6.80
2023-05-22T03:04:04.449Z,9.23
2023-05-22T03:06:54.761Z,9.17
2023-05-22T03:09:43.572Z,8.57
2023-05-22T03:12:32.336Z,9.13
2023-05-22T03:15:23.471Z,8.97
2023-05-22T03:18:16.232Z,8.87
2023-05-22T03:21:06.710Z,9.70
2023-05-22T03:23:55.356Z,9.90
2023-05-22T03:26:44.099Z,8.97
2023-05-22T03:29:40.307Z,9.83
2023-05-22T03:32:30.417Z,9.17
2023-05-22T03:35:20.260Z,9.50
2023-05-22T03:38:09.048Z,9.13
2023-05-22T03:41:04.484Z,9.87
2023-05-22T03:43:53.287Z,10.60
2023-05-22T03:46:44.376Z,10.83
2023-05-22T03:49:34.542Z,9.97
2023-05-22T03:52:24.573Z,10.20
2023-05-22T03:55:13.644Z,9.23
2023-05-22T03:58:03.018Z,9.53
2023-05-22T04:00:52.553Z,10.30
2023-05-22T04:03:41.521Z,10.07
2023-05-22T04:06:34.290Z,10.13
2023-05-22T04:09:23.021Z,10.47
2023-05-22T04:12:12.760Z,10.10
2023-05-22T04:15:03.064Z,10.10
2023-05-22T04:17:52.642Z,10.60
2023-05-22T04:20:42.781Z,10.60
2023-05-22T04:23:32.837Z,10.10
2023-05-22T04:26:21.846Z,9.50
2023-05-22T04:29:14.409Z,9.47
2023-05-22T04:32:03.617Z,10.73
2023-05-22T04:34:52.300Z,10.67
2023-05-22T04:37:42.357Z,10.00
2023-05-22T04:40:33.772Z,11.80
2023-05-22T04:43:26.908Z,10.43
2023-05-22T04:46:16.606Z,11.07
2023-05-22T04:49:08.492Z,10.70
2023-05-22T04:51:58.387Z,10.93
2023-05-22T04:54:49.783Z,11.03
2023-05-22T04:57:40.241Z,11.47
2023-05-22T05:00:29.885Z,11.03
2023-05-22T05:03:19.217Z,11.87
2023-05-22T05:06:08.695Z,10.90
2023-05-22T05:08:59.051Z,11.90
2023-05-22T05:11:48.025Z,11.67
2023-05-22T05:14:38.265Z,12.50
2023-05-22T05:17:27.581Z,11.80
2023-05-22T05:20:16.398Z,11.37
2023-05-22T05:23:05.696Z,12.80
2023-05-22T05:25:55.362Z,11.90
2023-05-22T05:28:44.383Z,12.80
2023-05-22T05:31:34.583Z,11.77
2023-05-22T05:34:44.580Z,12.53
2023-05-22T05:37:43.472Z,12.87
2023-05-22T05:40:33.435Z,14.40
2023-05-22T05:43:23.311Z,13.47
2023-05-22T05:46:15.844Z,12.73
2023-05-22T05:49:11.202Z,13.03
2023-05-22T05:52:02.137Z,12.83
2023-05-22T05:54:52.048Z,11.67
2023-05-22T05:57:43.557Z,12.77
2023-05-22T06:00:39.190Z,12.17
2023-05-22T06:03:28.351Z,11.97
2023-05-22T06:06:39.391Z,12.10
2023-05-22T06:09:37.341Z,12.27
2023-05-22T06:12:44.921Z,11.00
2023-05-22T06:15:34.552Z,11.83
2023-05-22T06:18:25.549Z,11.80
2023-05-22T06:21:15.138Z,10.93
2023-05-22T06:24:06.103Z,11.30
2023-05-22T06:26:56.416Z,11.83
2023-05-22T06:29:45.341Z,11.43
2023-05-22T06:32:34.466Z,10.60
2023-05-22T06:35:24.413Z,11.17
2023-05-22T06:38:14.109Z,9.20
2023-05-22T06:41:06.143Z,9.27
2023-05-22T06:43:54.841Z,9.00
2023-05-22T06:46:49.984Z,9.80
2023-05-22T06:49:44.336Z,10.37
2023-05-22T06:52:33.879Z,9.40
2023-05-22T06:55:24.675Z,9.10
2023-05-22T06:58:25.747Z,9.33
2023-05-22T07:01:15.127Z,10.00
2023-05-22T07:04:13.476Z,9.97
2023-05-22T07:07:22.389Z,9.30
2023-05-22T07:10:12.441Z,9.47
2023-05-22T07:13:01.261Z,9.17
2023-05-22T07:15:52.584Z,9.23
2023-05-22T07:18:41.991Z,9.00
2023-05-22T07:21:31.955Z,9.57
2023-05-22T07:24:20.924Z,9.37
2023-05-22T07:27:12.677Z,9.07
2023-05-22T07:30:02.471Z,8.57
2023-05-22T07:32:55.265Z,9.50
2023-05-22T07:35:45.688Z,9.37
2023-05-22T07:38:34.822Z,8.90
2023-05-22T07:41:27.241Z,10.30
2023-05-22T07:44:16.499Z,9.30
2023-05-22T07:47:06.711Z,10.07
2023-05-22T07:49:58.099Z,10.30
2023-05-22T07:52:47.292Z,8.67
2023-05-22T07:55:36.366Z,9.90
2023-05-22T07:58:25.470Z,10.47
2023-05-22T08:01:15.562Z,10.90
2023-05-22T08:04:04.712Z,9.80
2023-05-22T08:06:55.061Z,9.97
2023-05-22T08:09:46.133Z,9.83
2023-05-22T08:12:34.950Z,11.03
2023-05-22T08:15:24.363Z,10.07
2023-05-22T08:18:13.778Z,10.23
2023-05-22T08:21:02.756Z,9.57
2023-05-22T08:23:52.846Z,10.20
2023-05-22T08:26:43.851Z,10.27
2023-05-22T08:29:32.622Z,9.40
2023-05-22T08:32:21.809Z,10.00
2023-05-22T08:35:11.559Z,10.10
2023-05-22T08:38:00.272Z,9.93
2023-05-22T08:40:50.803Z,9.57
2023-05-22T08:43:40.688Z,10.53
2023-05-22T08:46:31.807Z,9.80
2023-05-22T08:49:24.269Z,9.70
2023-05-22T08:52:17.943Z,10.33
2023-05-22T08:55:09.081Z,9.13
2023-05-22T08:57:59.857Z,8.73
2023-05-22T09:00:48.881Z,10.70
2023-05-22T09:03:38.815Z,9.90
2023-05-22T09:06:29.171Z,9.53
2023-05-22T09:09:18.362Z,9.20
2023-05-22T09:12:10.154Z,10.43
2023-05-22T09:15:09.865Z,9.50
2023-05-22T09:17:58.954Z,11.23
2023-05-22T09:20:47.973Z,10.50
2023-05-22T09:23:37.902Z,11.37
2023-05-22T09:26:29.455Z,11.77
2023-05-22T09:29:18.222Z,11.33
2023-05-22T09:32:15.180Z,12.67
2023-05-22T09:35:06.032Z,11.70
2023-05-22T09:37:57.313Z,11.37
2023-05-22T09:40:46.362Z,10.17
2023-05-22T09:43:35.145Z,11.30
2023-05-22T09:46:24.300Z,12.30
2023-05-22T09:49:16.741Z,11.70
2023-05-22T09:52:09.185Z,10.60
2023-05-22T09:54:59.694Z,11.17
2023-05-22T09:57:53.692Z,11.67
2023-05-22T10:00:44.452Z,11.13
2023-05-22T10:03:35.283Z,11.07
2023-05-22T10:06:27.484Z,10.60
2023-05-22T10:09:19.641Z,11.03
2023-05-22T10:12:16.263Z,10.37
2023-05-22T10:15:07.587Z,10.67
2023-05-22T10:17:58.077Z,10.00
2023-05-22T10:20:48.223Z,10.37
2023-05-22T10:23:39.546Z,9.80
2023-05-22T10:26:30.160Z,10.03
2023-05-22T10:29:26.713Z,11.10
2023-05-22T10:32:24.805Z,11.50
2023-05-22T10:35:21.873Z,11.90
2023-05-22T10:38:48.436Z,11.20
2023-05-22T10:41:37.352Z,10.40
2023-05-22T10:44:26.572Z,11.33
2023-05-22T10:47:16.040Z,10.77
2023-05-22T10:50:08.611Z,11.40
2023-05-22T10:53:23.650Z,9.93
2023-05-22T10:56:15.433Z,9.10
2023-05-22T10:59:07.318Z,8.70
2023-05-22T11:02:02.174Z,8.40
2023-05-22T11:04:52.054Z,10.07
2023-05-22T11:07:42.495Z,8.77
2023-05-22T11:10:56.521Z,9.77
2023-05-22T11:13:53.097Z,8.70
2023-05-22T11:16:41.880Z,8.93
2023-05-22T11:19:30.865Z,9.15
2023-05-22T11:22:20.302Z,9.17
2023-05-22T11:25:11.008Z,9.80
2023-05-22T11:28:00.171Z,9.43
2023-05-22T11:30:50.533Z,9.27
2023-05-22T11:33:40.190Z,9.40
2023-05-22T11:36:30.030Z,9.05
2023-05-22T11:39:18.855Z,9.95
2023-05-22T11:42:08.176Z,9.13
2023-05-22T11:44:57.374Z,9.60
2023-05-22T11:47:48.581Z,8.85
2023-05-22T11:50:42.402Z,8.38
2023-05-22T11:53:33.589Z,8.98
2023-05-22T11:56:23.358Z,8.20
2023-05-22T11:59:12.198Z,8.00
2023-05-22T12:02:00.984Z,7.93
2023-05-22T12:04:55.601Z,8.40
2023-05-22T12:07:44.562Z,8.70
2023-05-22T12:10:33.494Z,8.57
2023-05-22T12:13:26.289Z,9.18
2023-05-22T12:16:23.098Z,7.88
2023-05-22T12:19:12.842Z,7.78
2023-05-22T12:22:06.062Z,9.20
2023-05-22T12:24:55.618Z,8.55
2023-05-22T12:27:45.436Z,9.02
2023-05-22T12:30:42.165Z,9.45
2023-05-22T12:33:32.099Z,8.95
2023-05-22T12:36:20.835Z,8.25
2023-05-22T12:39:11.836Z,8.50
2023-05-22T12:42:00.712Z,8.90
2023-05-22T12:44:50.560Z,8.90
2023-05-22T12:47:39.406Z,8.02
2023-05-22T12:50:31.556Z,8.68
2023-05-22T12:53:20.848Z,8.73
2023-05-22T12:56:12.017Z,8.10
2023-05-22T12:59:00.846Z,9.40
2023-05-22T13:01:49.756Z,8.70
2023-05-22T13:04:38.752Z,8.63
2023-05-22T13:07:27.548Z,9.38
2023-05-22T13:10:16.443Z,8.75
2023-05-22T13:13:06.630Z,8.48
2023-05-22T13:15:56.005Z,8.10
2023-05-22T13:18:44.827Z,8.85
2023-05-22T13:21:33.585Z,8.10
2023-05-22T13:24:22.319Z,8.20
2023-05-22T13:27:11.071Z,7.90
2023-05-22T13:30:02.287Z,7.82
2023-05-22T13:32:50.987Z,8.38
2023-05-22T13:35:39.994Z,8.35
2023-05-22T13:38:28.915Z,8.40
2023-05-22T13:41:18.320Z,8.20
2023-05-22T13:44:07.436Z,7.85
2023-05-22T13:46:57.579Z,8.38
2023-05-22T13:49:49.958Z,7.97
2023-05-22T13:52:38.801Z,8.13
2023-05-22T13:55:27.458Z,7.80
2023-05-22T13:58:16.177Z,7.93
2023-05-22T14:01:05.029Z,7.57
2023-05-22T14:03:55.335Z,7.80
2023-05-22T14:06:44.484Z,8.18
2023-05-22T14:09:33.301Z,6.95
2023-05-22T14:12:21.934Z,7.30
2023-05-22T14:15:11.496Z,7.25
2023-05-22T14:18:00.275Z,8.15
2023-05-22T14:20:50.562Z,8.00
2023-05-22T14:23:39.243Z,8.15
2023-05-22T14:26:28.102Z,7.50
2023-05-22T14:29:16.994Z,7.20
2023-05-22T14:32:06.596Z,7.90
2023-05-22T14:34:55.254Z,7.50
2023-05-22T14:37:45.749Z,7.65
2023-05-22T14:40:34.489Z,7.70
2023-05-22T14:43:23.706Z,7.10
2023-05-22T14:46:12.694Z,7.07
2023-05-22T14:49:01.416Z,7.45
2023-05-22T14:51:50.273Z,7.57
2023-05-22T14:54:40.416Z,8.63
2023-05-22T14:57:29.118Z,7.38
2023-05-22T15:00:18.542Z,7.85
2023-05-22T15:03:07.431Z,8.18
2023-05-22T15:05:56.161Z,7.53
2023-05-22T15:08:44.929Z,7.68
2023-05-22T15:11:35.079Z,7.47
2023-05-22T15:14:24.030Z,8.40
2023-05-22T15:17:12.721Z,7.80
2023-05-22T15:20:01.420Z,8.70
2023-05-22T15:22:50.252Z,7.80
2023-05-22T15:25:39.211Z,11.60
2023-05-22T15:28:29.589Z,13.37
2023-05-22T15:31:18.586Z,11.03
2023-05-22T15:34:07.452Z,11.27
2023-05-22T15:36:56.562Z,10.70
2023-05-22T15:39:45.380Z,11.50
2023-05-22T15:42:34.152Z,10.20
2023-05-22T15:45:24.362Z,10.97
2023-05-22T15:48:13.234Z,10.30
2023-05-22T15:51:02.029Z,11.17
2023-05-22T15:53:51.344Z,10.23
2023-05-22T15:56:40.116Z,12.00
2023-05-22T15:59:29.069Z,11.97
2023-05-22T16:02:21.154Z,11.50
2023-05-22T16:05:10.540Z,10.57
2023-05-22T16:07:59.309Z,12.20
2023-05-22T16:10:49.517Z,11.70
2023-05-22T16:13:38.497Z,12.13
2023-05-22T16:16:27.438Z,10.97
2023-05-22T16:19:17.829Z,9.87
2023-05-22T16:22:06.865Z,10.10
2023-05-22T16:24:55.646Z,10.40
2023-05-22T16:27:44.398Z,9.20
2023-05-22T16:30:33.143Z,8.40
2023-05-22T16:33:22.072Z,7.60
2023-05-22T16:36:12.250Z,7.80
2023-05-22T16:39:00.993Z,7.73
2023-05-22T16:41:51.641Z,8.97
2023-05-22T16:44:42.333Z,9.20
2023-05-22T16:47:33.022Z,7.37
2023-05-22T16:50:22.268Z,7.60
2023-05-22T16:53:12.516Z,8.17
2023-05-22T16:56:01.340Z,7.23
2023-05-22T16:58:50.065Z,6.67
2023-05-22T17:01:39.106Z,8.10
2023-05-22T17:04:27.884Z,7.10
2023-05-22T17:07:16.678Z,6.73
2023-05-22T17:10:08.094Z,6.43
2023-05-22T17:12:56.934Z,6.60
2023-05-22T17:15:45.701Z,7.30
2023-05-22T17:18:34.491Z,6.57
2023-05-22T17:21:24.307Z,7.97
2023-05-22T17:24:14.894Z,8.13
2023-05-22T17:27:06.771Z,8.17
2023-05-22T17:29:55.516Z,7.50
2023-05-22T17:32:45.111Z,7.77
2023-05-22T17:35:33.840Z,8.20
2023-05-22T17:38:22.834Z,7.93
2023-05-22T17:41:12.364Z,8.00
2023-05-22T17:44:02.551Z,8.03
2023-05-22T17:46:51.231Z,8.47
2023-05-22T17:49:40.029Z,7.90
2023-05-22T17:52:28.778Z,7.53
2023-05-22T17:55:17.667Z,7.33
2023-05-22T17:58:06.310Z,7.97
2023-05-22T18:00:56.361Z,7.77
2023-05-22T18:03:45.321Z,8.00
2023-05-22T18:06:34.149Z,8.67
2023-05-22T18:09:22.893Z,7.60
2023-05-22T18:12:30.206Z,7.63
2023-05-22T18:15:20.158Z,6.93
2023-05-22T18:18:12.784Z,6.77
2023-05-22T18:21:02.827Z,7.20
2023-05-22T18:23:51.448Z,7.40
2023-05-22T18:26:41.149Z,6.70
2023-05-22T18:29:30.741Z,7.20
2023-05-22T18:32:19.576Z,7.30
2023-05-22T18:35:10.980Z,6.87
2023-05-22T18:38:00.232Z,7.57
2023-05-22T18:40:48.956Z,7.93
2023-05-22T18:43:37.803Z,8.00
2023-05-22T18:46:26.700Z,7.43
2023-05-22T18:49:15.413Z,7.33
2023-05-22T18:52:05.757Z,7.90
2023-05-22T18:54:54.450Z,7.87
2023-05-22T18:57:43.062Z,7.40
2023-05-22T19:00:31.795Z,7.50
2023-05-22T19:03:20.526Z,7.47
2023-05-22T19:06:09.314Z,7.70
2023-05-22T19:08:59.699Z,7.97
2023-05-22T19:11:48.319Z,7.70
2023-05-22T19:14:36.957Z,8.30
2023-05-22T19:17:26.130Z,7.87
2023-05-22T19:20:14.913Z,8.40
2023-05-22T19:23:03.997Z,7.53
2023-05-22T19:25:55.640Z,8.33
2023-05-22T19:28:44.503Z,8.17
2023-05-22T19:31:33.209Z,7.97
2023-05-22T19:34:22.080Z,8.00
2023-05-22T19:37:10.913Z,8.37
2023-05-22T19:39:59.583Z,8.67
2023-05-22T19:42:49.626Z,8.97
2023-05-22T19:45:38.759Z,9.17
2023-05-22T19:48:29.858Z,9.00
2023-05-22T19:51:18.659Z,8.70
2023-05-22T19:54:07.654Z,8.70
2023-05-22T19:56:56.357Z,9.30
2023-05-22T19:59:46.904Z,9.10
2023-05-22T20:02:36.215Z,9.10
2023-05-22T20:05:26.009Z,8.80
2023-05-22T20:08:15.084Z,8.97
2023-05-22T20:11:04.661Z,8.67
2023-05-22T20:13:54.528Z,9.40
2023-05-22T20:16:44.668Z,9.33
2023-05-22T20:19:34.554Z,8.93
2023-05-22T20:22:23.350Z,9.33
2023-05-22T20:25:12.044Z,9.23
2023-05-22T20:28:01.405Z,8.53
2023-05-22T20:30:51.109Z,8.47
2023-05-22T20:33:41.158Z,8.90
2023-05-22T20:36:30.032Z,9.17
2023-05-22T20:39:19.142Z,8.77
2023-05-22T20:42:08.227Z,8.10
2023-05-22T20:44:56.824Z,8.43
2023-05-22T20:47:45.820Z,8.70
2023-05-22T20:50:39.738Z,8.73
2023-05-22T20:53:28.696Z,8.03
2023-05-22T20:56:17.935Z,8.73
2023-05-22T20:59:07.249Z,7.77
2023-05-22T21:01:56.209Z,6.87
2023-05-22T21:04:45.502Z,7.30
2023-05-22T21:07:35.629Z,7.67
2023-05-22T21:10:25.430Z,8.33
2023-05-22T21:13:14.299Z,8.00
2023-05-22T21:16:03.005Z,8.83
2023-05-22T21:18:51.753Z,7.73
2023-05-22T21:21:41.864Z,9.00
2023-05-22T21:24:32.232Z,7.17
2023-05-22T21:27:20.920Z,7.93
2023-05-22T21:30:11.938Z,8.17
2023-05-22T21:33:01.220Z,7.90
2023-05-22T21:35:50.056Z,8.30
2023-05-22T21:38:38.838Z,8.97
2023-05-22T21:41:28.988Z,8.13
2023-05-22T21:44:18.524Z,8.43
2023-05-22T21:47:07.222Z,8.43
2023-05-22T21:49:56.293Z,8.80
2023-05-22T21:52:44.959Z,7.77
2023-05-22T21:55:35.402Z,8.40
2023-05-22T21:58:25.668Z,8.00
2023-05-22T22:01:14.417Z,8.60
2023-05-22T22:04:03.739Z,7.47
2023-05-22T22:06:52.481Z,7.93
2023-05-22T22:09:41.301Z,7.20
2023-05-22T22:12:30.062Z,8.23
2023-05-22T22:15:21.851Z,7.53
2023-05-22T22:18:14.990Z,7.37
2023-05-22T22:21:04.642Z,8.10
2023-05-22T22:23:53.465Z,8.23
2023-05-22T22:26:42.316Z,7.57
2023-05-22T22:29:31.050Z,8.33
2023-05-22T22:32:21.148Z,8.23
2023-05-22T22:35:11.171Z,8.50
2023-05-22T22:38:00.142Z,8.67
2023-05-22T22:40:48.868Z,7.97
2023-05-22T22:43:37.937Z,7.90
2023-05-22T22:46:27.505Z,8.40
2023-05-22T22:49:17.624Z,9.57
2023-05-22T22:52:07.655Z,9.73
2023-05-22T22:54:57.034Z,9.77
2023-05-22T22:57:47.908Z,10.10
2023-05-22T23:00:37.819Z,10.50
2023-05-22T23:03:27.248Z,11.90
2023-05-22T23:06:18.276Z,10.77
2023-05-22T23:09:07.032Z,11.67
2023-05-22T23:11:55.811Z,11.90
2023-05-22T23:14:44.919Z,13.00
2023-05-22T23:17:33.727Z,12.97
2023-05-22T23:20:22.511Z,13.90
2023-05-22T23:23:12.657Z,14.53
2023-05-22T23:26:01.448Z,15.13
2023-05-22T23:28:50.153Z,17.57
2023-05-22T23:31:40.455Z,25.80
2023-05-22T23:34:29.211Z,24.87
2023-05-22T23:37:18.428Z,26.47
2023-05-22T23:40:10.019Z,28.47
2023-05-22T23:42:58.731Z,25.33
2023-05-22T23:45:47.401Z,26.20
2023-05-22T23:48:36.106Z,27.93
2023-05-22T23:51:24.942Z,23.90
2023-05-22T23:54:13.859Z,21.27
2023-05-22T23:57:04.043Z,19.30
2023-05-22T23:59:53.214Z,17.77
